world map with LOP marked

LOP - Airport

This information may not be accurate or current and is not valid for navigation or flight planning. No warranty of fitness for any purpose is made or implied.

flag of Nusa Tenggara Baratflag of Indonesia

Donate via PayPal

Additional information is available on the NEW Great Circle Mapper

Location
City:  Praya, Lombok Island, Nusa Tenggara Barat, Indonesia
Name:Lombok International Airport
ICAO / IATA:WADL / LOP

Details
Type:Airport (Aerodrome, Airfield)
Use:Public/Civil
Latitude:8°45'26"S (-8.757321)
Longitude:116°16'36"E (116.276675)
Elevation:319 ft (97 m)
Runways:1
Longest:9022 × 148 ft (2750 × 45 m)

Time
Timezone:UTC+8 (DST+10)
Local Time:

Weather
METAR:WADL  172300Z 33001KT 7000 FEW016 25/25 Q1009 NOSIG
TAF:WADL  (expired)

Related Locations
Nearby:
Farthest:SVOK: 12431 mi / 20006 km
Oritupano, N, VE

Find:

   beyond  
but within

Other Information
Maps:
Links:
Sources:

  


 


Great Circle Mapper   Great Circle Mapper
Great Circle Mapper FAQ   Great Circle Mapper FAQ
  Karl's Home Page
KLSē   KLSē Home
   GC on Facebook
Airlines of the World   Airlines of the World
Donate via PayPal


Copyright © 2004-2017, Karl L. Swartz. All rights reserved.
All trademarks mentioned herein belong to their respective owners.

Please see credits for attribution and copyright information.

Karl Swartz <karl@kls2.com>
  Powered by FreeBSD
Valid HTML 4.01!
Labeled with ICRA
hCard Microformat
Geo Microformat